sensor_id;sensor_type;location;lat;lon;timestamp;P1;durP1;ratioP1;P2;durP2;ratioP2
28304;SDS011;15569;42.652;23.040;2022-09-03T00:05:55;6.93;;;3.83;;
28304;SDS011;15569;42.652;23.040;2022-09-03T00:08:00;6.22;;;3.90;;
28304;SDS011;15569;42.652;23.040;2022-09-03T00:13:13;8.13;;;4.18;;
28304;SDS011;15569;42.652;23.040;2022-09-03T00:15:41;6.18;;;3.75;;
28304;SDS011;15569;42.652;23.040;2022-09-03T00:18:26;5.38;;;3.97;;
28304;SDS011;15569;42.652;23.040;2022-09-03T00:20:56;8.32;;;3.97;;
28304;SDS011;15569;42.652;23.040;2022-09-03T00:23:32;6.03;;;3.85;;
28304;SDS011;15569;42.652;23.040;2022-09-03T00:31:32;5.70;;;4.28;;
28304;SDS011;15569;42.652;23.040;2022-09-03T00:34:06;5.90;;;3.72;;
28304;SDS011;15569;42.652;23.040;2022-09-03T00:36:41;5.75;;;3.90;;
28304;SDS011;15569;42.652;23.040;2022-09-03T00:39:17;6.05;;;3.90;;
28304;SDS011;15569;42.652;23.040;2022-09-03T00:42:00;9.30;;;4.25;;
28304;SDS011;15569;42.652;23.040;2022-09-03T00:47:36;9.35;;;4.10;;
28304;SDS011;15569;42.652;23.040;2022-09-03T00:50:19;7.03;;;4.03;;
28304;SDS011;15569;42.652;23.040;2022-09-03T00:52:53;5.78;;;4.40;;
28304;SDS011;15569;42.652;23.040;2022-09-03T00:58:16;5.77;;;3.77;;
28304;SDS011;15569;42.652;23.040;2022-09-03T01:00:49;7.65;;;4.03;;
28304;SDS011;15569;42.652;23.040;2022-09-03T01:06:16;4.35;;;3.35;;
28304;SDS011;15569;42.652;23.040;2022-09-03T01:11:46;6.88;;;3.85;;
28304;SDS011;15569;42.652;23.040;2022-09-03T01:28:14;4.60;;;3.33;;
28304;SDS011;15569;42.652;23.040;2022-09-03T01:30:44;8.13;;;4.07;;
28304;SDS011;15569;42.652;23.040;2022-09-03T01:34:09;6.03;;;3.60;;
28304;SDS011;15569;42.652;23.040;2022-09-03T01:36:36;4.90;;;3.67;;
28304;SDS011;15569;42.652;23.040;2022-09-03T01:39:17;5.65;;;4.10;;
28304;SDS011;15569;42.652;23.040;2022-09-03T01:44:40;5.25;;;3.92;;
28304;SDS011;15569;42.652;23.040;2022-09-03T01:53:00;6.45;;;3.58;;
28304;SDS011;15569;42.652;23.040;2022-09-03T01:58:29;7.57;;;3.25;;
28304;SDS011;15569;42.652;23.040;2022-09-03T02:01:01;4.53;;;3.55;;
28304;SDS011;15569;42.652;23.040;2022-09-03T02:03:38;5.50;;;3.30;;
28304;SDS011;15569;42.652;23.040;2022-09-03T02:06:07;6.53;;;3.80;;
28304;SDS011;15569;42.652;23.040;2022-09-03T02:08:34;6.68;;;3.70;;
28304;SDS011;15569;42.652;23.040;2022-09-03T02:10:59;8.10;;;3.95;;
28304;SDS011;15569;42.652;23.040;2022-09-03T02:16:30;4.22;;;3.50;;
28304;SDS011;15569;42.652;23.040;2022-09-03T02:18:58;4.22;;;3.58;;
28304;SDS011;15569;42.652;23.040;2022-09-03T02:21:33;6.53;;;4.25;;
28304;SDS011;15569;42.652;23.040;2022-09-03T02:24:02;6.38;;;3.58;;
28304;SDS011;15569;42.652;23.040;2022-09-03T02:26:28;6.35;;;4.00;;
28304;SDS011;15569;42.652;23.040;2022-09-03T02:28:54;5.00;;;3.53;;
28304;SDS011;15569;42.652;23.040;2022-09-03T02:31:20;4.72;;;3.35;;
28304;SDS011;15569;42.652;23.040;2022-09-03T02:33:46;8.43;;;4.28;;
28304;SDS011;15569;42.652;23.040;2022-09-03T02:36:13;6.80;;;4.10;;
28304;SDS011;15569;42.652;23.040;2022-09-03T02:38:42;7.47;;;4.15;;
28304;SDS011;15569;42.652;23.040;2022-09-03T02:41:08;5.32;;;3.83;;
28304;SDS011;15569;42.652;23.040;2022-09-03T02:46:34;4.78;;;3.58;;
28304;SDS011;15569;42.652;23.040;2022-09-03T02:49:03;4.75;;;3.75;;
28304;SDS011;15569;42.652;23.040;2022-09-03T02:51:36;7.97;;;4.30;;
28304;SDS011;15569;42.652;23.040;2022-09-03T02:54:04;4.90;;;3.70;;
28304;SDS011;15569;42.652;23.040;2022-09-03T02:56:30;7.95;;;3.90;;
28304;SDS011;15569;42.652;23.040;2022-09-03T02:58:56;5.70;;;3.60;;
28304;SDS011;15569;42.652;23.040;2022-09-03T03:01:22;4.32;;;3.30;;
28304;SDS011;15569;42.652;23.040;2022-09-03T03:03:47;5.10;;;3.65;;
28304;SDS011;15569;42.652;23.040;2022-09-03T03:06:13;4.43;;;3.53;;
28304;SDS011;15569;42.652;23.040;2022-09-03T03:08:38;5.07;;;3.63;;
28304;SDS011;15569;42.652;23.040;2022-09-03T03:11:04;5.28;;;3.50;;
28304;SDS011;15569;42.652;23.040;2022-09-03T03:13:30;3.58;;;3.15;;
28304;SDS011;15569;42.652;23.040;2022-09-03T03:15:57;5.07;;;3.60;;
28304;SDS011;15569;42.652;23.040;2022-09-03T03:18:27;5.10;;;3.90;;
28304;SDS011;15569;42.652;23.040;2022-09-03T03:20:52;5.70;;;3.72;;
28304;SDS011;15569;42.652;23.040;2022-09-03T03:23:18;5.45;;;3.45;;
28304;SDS011;15569;42.652;23.040;2022-09-03T03:25:44;5.60;;;3.30;;
28304;SDS011;15569;42.652;23.040;2022-09-03T03:28:10;4.85;;;3.45;;
28304;SDS011;15569;42.652;23.040;2022-09-03T03:30:37;4.15;;;3.20;;
28304;SDS011;15569;42.652;23.040;2022-09-03T03:33:04;5.43;;;3.78;;
28304;SDS011;15569;42.652;23.040;2022-09-03T03:35:30;5.13;;;3.38;;
28304;SDS011;15569;42.652;23.040;2022-09-03T03:37:59;4.85;;;3.78;;
28304;SDS011;15569;42.652;23.040;2022-09-03T03:40:25;6.90;;;3.15;;
28304;SDS011;15569;42.652;23.040;2022-09-03T03:42:50;5.68;;;3.17;;
28304;SDS011;15569;42.652;23.040;2022-09-03T03:45:16;6.07;;;3.78;;
28304;SDS011;15569;42.652;23.040;2022-09-03T03:47:41;5.32;;;3.75;;
28304;SDS011;15569;42.652;23.040;2022-09-03T03:52:34;4.10;;;3.22;;
28304;SDS011;15569;42.652;23.040;2022-09-03T03:55:00;5.28;;;3.50;;
28304;SDS011;15569;42.652;23.040;2022-09-03T03:57:28;7.05;;;3.50;;
28304;SDS011;15569;42.652;23.040;2022-09-03T03:59:54;5.88;;;3.35;;
28304;SDS011;15569;42.652;23.040;2022-09-03T04:02:19;4.57;;;3.30;;
28304;SDS011;15569;42.652;23.040;2022-09-03T04:04:45;5.85;;;3.75;;
28304;SDS011;15569;42.652;23.040;2022-09-03T04:07:10;3.90;;;3.05;;
28304;SDS011;15569;42.652;23.040;2022-09-03T04:09:36;6.22;;;3.60;;
28304;SDS011;15569;42.652;23.040;2022-09-03T04:12:01;5.85;;;3.10;;
28304;SDS011;15569;42.652;23.040;2022-09-03T04:14:27;4.72;;;3.45;;
28304;SDS011;15569;42.652;23.040;2022-09-03T04:16:53;4.70;;;3.05;;
28304;SDS011;15569;42.652;23.040;2022-09-03T04:21:50;6.28;;;3.78;;
28304;SDS011;15569;42.652;23.040;2022-09-03T04:24:16;4.72;;;3.53;;
28304;SDS011;15569;42.652;23.040;2022-09-03T04:26:41;7.45;;;3.97;;
28304;SDS011;15569;42.652;23.040;2022-09-03T04:29:08;5.20;;;3.60;;
28304;SDS011;15569;42.652;23.040;2022-09-03T04:31:34;4.68;;;3.28;;
28304;SDS011;15569;42.652;23.040;2022-09-03T04:34:01;3.42;;;3.10;;
28304;SDS011;15569;42.652;23.040;2022-09-03T04:36:28;5.20;;;3.45;;
28304;SDS011;15569;42.652;23.040;2022-09-03T04:38:55;6.30;;;3.33;;
28304;SDS011;15569;42.652;23.040;2022-09-03T04:41:27;4.50;;;3.28;;
28304;SDS011;15569;42.652;23.040;2022-09-03T04:43:55;6.05;;;4.18;;
28304;SDS011;15569;42.652;23.040;2022-09-03T04:46:23;5.78;;;3.90;;
28304;SDS011;15569;42.652;23.040;2022-09-03T04:48:51;5.55;;;3.70;;
28304;SDS011;15569;42.652;23.040;2022-09-03T04:51:19;5.25;;;3.85;;
28304;SDS011;15569;42.652;23.040;2022-09-03T04:53:51;6.07;;;4.13;;
28304;SDS011;15569;42.652;23.040;2022-09-03T04:56:22;5.30;;;4.13;;
28304;SDS011;15569;42.652;23.040;2022-09-03T04:58:54;4.70;;;3.45;;
28304;SDS011;15569;42.652;23.040;2022-09-03T05:01:21;10.43;;;3.42;;
28304;SDS011;15569;42.652;23.040;2022-09-03T05:06:16;4.28;;;3.00;;
28304;SDS011;15569;42.652;23.040;2022-09-03T05:08:41;4.60;;;2.90;;
28304;SDS011;15569;42.652;23.040;2022-09-03T05:11:08;4.55;;;3.13;;
28304;SDS011;15569;42.652;23.040;2022-09-03T05:13:34;4.00;;;2.80;;
28304;SDS011;15569;42.652;23.040;2022-09-03T05:16:04;3.33;;;2.65;;
28304;SDS011;15569;42.652;23.040;2022-09-03T05:18:31;4.28;;;2.72;;
28304;SDS011;15569;42.652;23.040;2022-09-03T05:21:09;11.88;;;3.67;;
28304;SDS011;15569;42.652;23.040;2022-09-03T05:23:37;5.05;;;3.80;;
28304;SDS011;15569;42.652;23.040;2022-09-03T05:26:06;4.93;;;3.25;;
28304;SDS011;15569;42.652;23.040;2022-09-03T05:28:34;6.85;;;3.53;;
28304;SDS011;15569;42.652;23.040;2022-09-03T05:31:06;3.92;;;3.35;;
28304;SDS011;15569;42.652;23.040;2022-09-03T05:33:33;7.28;;;2.97;;
28304;SDS011;15569;42.652;23.040;2022-09-03T05:36:00;4.55;;;3.38;;
28304;SDS011;15569;42.652;23.040;2022-09-03T05:38:28;4.43;;;3.22;;
28304;SDS011;15569;42.652;23.040;2022-09-03T05:40:56;3.20;;;2.88;;
28304;SDS011;15569;42.652;23.040;2022-09-03T05:43:26;5.22;;;3.25;;
28304;SDS011;15569;42.652;23.040;2022-09-03T05:45:56;6.90;;;3.05;;
28304;SDS011;15569;42.652;23.040;2022-09-03T05:48:24;5.05;;;3.60;;
28304;SDS011;15569;42.652;23.040;2022-09-03T05:50:57;5.82;;;3.70;;
28304;SDS011;15569;42.652;23.040;2022-09-03T05:53:27;4.45;;;3.20;;
28304;SDS011;15569;42.652;23.040;2022-09-03T05:55:59;4.57;;;3.58;;
28304;SDS011;15569;42.652;23.040;2022-09-03T05:58:33;3.63;;;3.17;;
28304;SDS011;15569;42.652;23.040;2022-09-03T06:02:00;4.28;;;3.03;;
28304;SDS011;15569;42.652;23.040;2022-09-03T06:04:02;5.90;;;3.53;;
28304;SDS011;15569;42.652;23.040;2022-09-03T06:06:30;5.15;;;3.90;;
28304;SDS011;15569;42.652;23.040;2022-09-03T06:08:58;9.27;;;4.00;;
28304;SDS011;15569;42.652;23.040;2022-09-03T06:11:25;4.68;;;3.30;;
28304;SDS011;15569;42.652;23.040;2022-09-03T06:13:56;5.25;;;3.53;;
28304;SDS011;15569;42.652;23.040;2022-09-03T06:16:25;3.80;;;3.33;;
28304;SDS011;15569;42.652;23.040;2022-09-03T06:18:51;4.68;;;3.40;;
28304;SDS011;15569;42.652;23.040;2022-09-03T06:21:18;5.18;;;3.75;;
28304;SDS011;15569;42.652;23.040;2022-09-03T06:23:47;4.57;;;3.72;;
28304;SDS011;15569;42.652;23.040;2022-09-03T06:26:17;4.90;;;3.53;;
28304;SDS011;15569;42.652;23.040;2022-09-03T06:28:43;5.18;;;4.07;;
28304;SDS011;15569;42.652;23.040;2022-09-03T06:31:10;8.23;;;5.35;;
28304;SDS011;15569;42.652;23.040;2022-09-03T06:33:37;5.50;;;4.43;;
28304;SDS011;15569;42.652;23.040;2022-09-03T06:36:04;6.50;;;4.70;;
28304;SDS011;15569;42.652;23.040;2022-09-03T06:38:32;8.60;;;6.20;;
28304;SDS011;15569;42.652;23.040;2022-09-03T06:43:53;6.20;;;4.85;;
28304;SDS011;15569;42.652;23.040;2022-09-03T06:46:23;5.75;;;4.60;;
28304;SDS011;15569;42.652;23.040;2022-09-03T06:48:48;10.10;;;7.13;;
28304;SDS011;15569;42.652;23.040;2022-09-03T06:51:19;12.52;;;6.63;;
28304;SDS011;15569;42.652;23.040;2022-09-03T06:53:47;6.00;;;4.80;;
28304;SDS011;15569;42.652;23.040;2022-09-03T06:56:15;7.28;;;5.80;;
28304;SDS011;15569;42.652;23.040;2022-09-03T06:58:44;11.18;;;9.07;;
28304;SDS011;15569;42.652;23.040;2022-09-03T07:03:37;10.05;;;8.02;;
28304;SDS011;15569;42.652;23.040;2022-09-03T07:06:04;24.77;;;12.15;;
28304;SDS011;15569;42.652;23.040;2022-09-03T07:08:34;11.93;;;6.53;;
28304;SDS011;15569;42.652;23.040;2022-09-03T07:11:01;7.85;;;6.85;;
28304;SDS011;15569;42.652;23.040;2022-09-03T07:13:30;15.25;;;6.80;;
28304;SDS011;15569;42.652;23.040;2022-09-03T07:16:01;12.38;;;7.22;;
28304;SDS011;15569;42.652;23.040;2022-09-03T07:18:29;11.40;;;8.10;;
28304;SDS011;15569;42.652;23.040;2022-09-03T07:20:59;19.55;;;7.57;;
28304;SDS011;15569;42.652;23.040;2022-09-03T07:25:52;10.00;;;6.25;;
28304;SDS011;15569;42.652;23.040;2022-09-03T07:28:19;8.52;;;4.57;;
28304;SDS011;15569;42.652;23.040;2022-09-03T07:30:44;9.77;;;5.90;;
28304;SDS011;15569;42.652;23.040;2022-09-03T07:33:10;10.73;;;6.25;;
28304;SDS011;15569;42.652;23.040;2022-09-03T07:35:35;9.30;;;5.45;;
28304;SDS011;15569;42.652;23.040;2022-09-03T07:38:01;7.55;;;4.82;;
28304;SDS011;15569;42.652;23.040;2022-09-03T07:40:26;9.30;;;4.47;;
28304;SDS011;15569;42.652;23.040;2022-09-03T07:42:56;11.35;;;6.65;;
28304;SDS011;15569;42.652;23.040;2022-09-03T07:45:25;9.05;;;5.97;;
28304;SDS011;15569;42.652;23.040;2022-09-03T07:47:52;14.13;;;6.70;;
28304;SDS011;15569;42.652;23.040;2022-09-03T07:50:18;10.52;;;7.63;;
28304;SDS011;15569;42.652;23.040;2022-09-03T07:52:43;30.30;;;7.68;;
28304;SDS011;15569;42.652;23.040;2022-09-03T07:55:09;22.45;;;7.30;;
28304;SDS011;15569;42.652;23.040;2022-09-03T07:57:34;15.65;;;6.43;;
28304;SDS011;15569;42.652;23.040;2022-09-03T08:00:00;6.47;;;4.63;;
28304;SDS011;15569;42.652;23.040;2022-09-03T08:15:30;13.20;;;8.77;;
28304;SDS011;15569;42.652;23.040;2022-09-03T08:17:56;22.05;;;8.75;;
28304;SDS011;15569;42.652;23.040;2022-09-03T08:20:24;7.63;;;5.47;;
28304;SDS011;15569;42.652;23.040;2022-09-03T08:22:50;12.70;;;7.55;;
28304;SDS011;15569;42.652;23.040;2022-09-03T08:25:16;7.00;;;5.47;;
28304;SDS011;15569;42.652;23.040;2022-09-03T08:27:41;15.98;;;5.93;;
28304;SDS011;15569;42.652;23.040;2022-09-03T08:30:07;16.30;;;6.57;;
28304;SDS011;15569;42.652;23.040;2022-09-03T08:32:35;8.23;;;6.43;;
28304;SDS011;15569;42.652;23.040;2022-09-03T08:35:02;12.10;;;5.35;;
28304;SDS011;15569;42.652;23.040;2022-09-03T08:37:28;22.85;;;11.40;;
28304;SDS011;15569;42.652;23.040;2022-09-03T08:39:57;13.60;;;6.85;;
28304;SDS011;15569;42.652;23.040;2022-09-03T08:45:11;17.98;;;7.88;;
28304;SDS011;15569;42.652;23.040;2022-09-03T08:47:42;69.03;;;28.38;;
28304;SDS011;15569;42.652;23.040;2022-09-03T08:50:11;11.05;;;8.05;;
28304;SDS011;15569;42.652;23.040;2022-09-03T08:52:44;11.57;;;6.53;;
28304;SDS011;15569;42.652;23.040;2022-09-03T08:58:02;11.55;;;4.38;;
28304;SDS011;15569;42.652;23.040;2022-09-03T09:00:37;6.45;;;4.13;;
28304;SDS011;15569;42.652;23.040;2022-09-03T09:05:41;9.70;;;3.97;;
28304;SDS011;15569;42.652;23.040;2022-09-03T09:13:47;29.75;;;18.73;;
28304;SDS011;15569;42.652;23.040;2022-09-03T09:21:39;21.30;;;10.30;;
28304;SDS011;15569;42.652;23.040;2022-09-03T09:24:12;11.23;;;4.93;;
28304;SDS011;15569;42.652;23.040;2022-09-03T09:26:46;6.22;;;3.10;;
28304;SDS011;15569;42.652;23.040;2022-09-03T09:29:12;3.75;;;3.28;;
28304;SDS011;15569;42.652;23.040;2022-09-03T09:31:39;6.07;;;3.17;;
28304;SDS011;15569;42.652;23.040;2022-09-03T09:34:08;6.95;;;4.07;;
28304;SDS011;15569;42.652;23.040;2022-09-03T09:39:16;17.50;;;6.10;;
28304;SDS011;15569;42.652;23.040;2022-09-03T09:41:42;26.38;;;12.05;;
28304;SDS011;15569;42.652;23.040;2022-09-03T09:44:16;7.80;;;6.18;;
28304;SDS011;15569;42.652;23.040;2022-09-03T09:46:43;9.20;;;6.93;;
28304;SDS011;15569;42.652;23.040;2022-09-03T09:52:02;25.88;;;6.95;;
28304;SDS011;15569;42.652;23.040;2022-09-03T09:54:33;6.90;;;4.47;;
28304;SDS011;15569;42.652;23.040;2022-09-03T09:57:00;7.65;;;4.45;;
28304;SDS011;15569;42.652;23.040;2022-09-03T09:59:27;13.25;;;7.53;;
28304;SDS011;15569;42.652;23.040;2022-09-03T10:02:02;12.27;;;5.03;;
28304;SDS011;15569;42.652;23.040;2022-09-03T10:04:33;31.48;;;8.07;;
28304;SDS011;15569;42.652;23.040;2022-09-03T10:09:56;5.60;;;3.53;;
28304;SDS011;15569;42.652;23.040;2022-09-03T10:28:35;26.58;;;8.13;;
28304;SDS011;15569;42.652;23.040;2022-09-03T10:33:43;19.17;;;9.13;;
28304;SDS011;15569;42.652;23.040;2022-09-03T10:39:22;35.35;;;23.35;;
28304;SDS011;15569;42.652;23.040;2022-09-03T10:50:27;11.93;;;5.47;;
28304;SDS011;15569;42.652;23.040;2022-09-03T10:55:43;33.05;;;6.55;;
28304;SDS011;15569;42.652;23.040;2022-09-03T11:00:53;13.02;;;5.82;;
28304;SDS011;15569;42.652;23.040;2022-09-03T11:03:34;25.77;;;4.68;;
28304;SDS011;15569;42.652;23.040;2022-09-03T11:06:19;3.10;;;2.25;;
28304;SDS011;15569;42.652;23.040;2022-09-03T11:11:40;7.57;;;4.88;;
28304;SDS011;15569;42.652;23.040;2022-09-03T11:14:10;35.22;;;13.05;;
28304;SDS011;15569;42.652;23.040;2022-09-03T11:16:44;6.38;;;5.28;;
28304;SDS011;15569;42.652;23.040;2022-09-03T11:19:14;7.88;;;4.82;;
28304;SDS011;15569;42.652;23.040;2022-09-03T11:21:42;10.68;;;5.13;;
28304;SDS011;15569;42.652;23.040;2022-09-03T11:27:06;12.80;;;5.45;;
28304;SDS011;15569;42.652;23.040;2022-09-03T11:29:54;21.70;;;10.93;;
28304;SDS011;15569;42.652;23.040;2022-09-03T11:34:58;13.07;;;6.75;;
28304;SDS011;15569;42.652;23.040;2022-09-03T11:37:25;18.23;;;8.48;;
28304;SDS011;15569;42.652;23.040;2022-09-03T11:40:27;10.80;;;6.22;;
28304;SDS011;15569;42.652;23.040;2022-09-03T11:42:46;11.68;;;6.45;;
28304;SDS011;15569;42.652;23.040;2022-09-03T11:47:54;15.77;;;9.30;;
28304;SDS011;15569;42.652;23.040;2022-09-03T11:50:21;6.60;;;4.88;;
28304;SDS011;15569;42.652;23.040;2022-09-03T11:55:24;17.25;;;5.63;;
28304;SDS011;15569;42.652;23.040;2022-09-03T11:57:57;6.25;;;3.25;;
28304;SDS011;15569;42.652;23.040;2022-09-03T12:00:44;16.55;;;5.78;;
28304;SDS011;15569;42.652;23.040;2022-09-03T12:47:17;6.75;;;3.60;;
28304;SDS011;15569;42.652;23.040;2022-09-03T12:49:46;5.40;;;3.60;;
28304;SDS011;15569;42.652;23.040;2022-09-03T12:52:25;4.10;;;2.90;;
28304;SDS011;15569;42.652;23.040;2022-09-03T12:57:45;4.88;;;3.25;;
28304;SDS011;15569;42.652;23.040;2022-09-03T13:00:14;6.82;;;3.72;;
28304;SDS011;15569;42.652;23.040;2022-09-03T13:05:24;4.68;;;3.25;;
28304;SDS011;15569;42.652;23.040;2022-09-03T13:07:59;16.70;;;10.23;;
28304;SDS011;15569;42.652;23.040;2022-09-03T13:10:33;11.48;;;7.57;;
28304;SDS011;15569;42.652;23.040;2022-09-03T13:13:06;27.20;;;12.93;;
28304;SDS011;15569;42.652;23.040;2022-09-03T13:35:11;9.50;;;5.80;;
28304;SDS011;15569;42.652;23.040;2022-09-03T13:40:54;4.30;;;2.60;;
28304;SDS011;15569;42.652;23.040;2022-09-03T13:43:43;3.05;;;2.63;;
28304;SDS011;15569;42.652;23.040;2022-09-03T13:46:22;5.90;;;3.22;;
28304;SDS011;15569;42.652;23.040;2022-09-03T13:48:55;6.03;;;4.38;;
28304;SDS011;15569;42.652;23.040;2022-09-03T13:51:43;5.00;;;2.83;;
28304;SDS011;15569;42.652;23.040;2022-09-03T13:56:54;3.58;;;2.60;;
28304;SDS011;15569;42.652;23.040;2022-09-03T13:59:30;4.25;;;3.60;;
28304;SDS011;15569;42.652;23.040;2022-09-03T14:02:06;3.17;;;2.67;;
28304;SDS011;15569;42.652;23.040;2022-09-03T14:04:50;3.13;;;2.67;;
28304;SDS011;15569;42.652;23.040;2022-09-03T14:07:47;4.97;;;2.80;;
28304;SDS011;15569;42.652;23.040;2022-09-03T14:10:21;8.82;;;3.75;;
28304;SDS011;15569;42.652;23.040;2022-09-03T14:12:59;3.05;;;2.50;;
28304;SDS011;15569;42.652;23.040;2022-09-03T14:15:29;6.25;;;2.08;;
28304;SDS011;15569;42.652;23.040;2022-09-03T14:18:22;3.15;;;2.50;;
28304;SDS011;15569;42.652;23.040;2022-09-03T14:21:00;3.88;;;2.60;;
28304;SDS011;15569;42.652;23.040;2022-09-03T14:23:35;3.35;;;3.05;;
28304;SDS011;15569;42.652;23.040;2022-09-03T14:26:14;5.28;;;2.45;;
28304;SDS011;15569;42.652;23.040;2022-09-03T14:28:43;3.17;;;2.50;;
28304;SDS011;15569;42.652;23.040;2022-09-03T14:39:54;4.43;;;2.67;;
28304;SDS011;15569;42.652;23.040;2022-09-03T14:45:01;3.03;;;2.45;;
28304;SDS011;15569;42.652;23.040;2022-09-03T14:47:48;3.60;;;2.78;;
28304;SDS011;15569;42.652;23.040;2022-09-03T15:06:08;4.32;;;3.90;;
28304;SDS011;15569;42.652;23.040;2022-09-03T15:08:42;4.28;;;3.10;;
28304;SDS011;15569;42.652;23.040;2022-09-03T15:11:14;5.35;;;3.58;;
28304;SDS011;15569;42.652;23.040;2022-09-03T15:16:34;5.10;;;3.13;;
28304;SDS011;15569;42.652;23.040;2022-09-03T15:19:12;4.78;;;2.67;;
28304;SDS011;15569;42.652;23.040;2022-09-03T15:30:17;7.95;;;3.33;;
28304;SDS011;15569;42.652;23.040;2022-09-03T15:38:01;6.40;;;3.47;;
28304;SDS011;15569;42.652;23.040;2022-09-03T15:40:32;4.55;;;3.20;;
28304;SDS011;15569;42.652;23.040;2022-09-03T15:43:14;4.07;;;3.35;;
28304;SDS011;15569;42.652;23.040;2022-09-03T15:58:33;7.65;;;3.40;;
28304;SDS011;15569;42.652;23.040;2022-09-03T16:01:08;4.90;;;3.30;;
28304;SDS011;15569;42.652;23.040;2022-09-03T16:11:55;5.47;;;3.45;;
28304;SDS011;15569;42.652;23.040;2022-09-03T16:14:34;6.57;;;4.30;;
28304;SDS011;15569;42.652;23.040;2022-09-03T16:19:49;7.93;;;5.53;;
28304;SDS011;15569;42.652;23.040;2022-09-03T16:25:00;12.43;;;7.57;;
28304;SDS011;15569;42.652;23.040;2022-09-03T16:35:23;7.10;;;5.18;;
28304;SDS011;15569;42.652;23.040;2022-09-03T16:41:27;11.20;;;6.45;;
28304;SDS011;15569;42.652;23.040;2022-09-03T16:44:03;13.00;;;6.22;;
28304;SDS011;15569;42.652;23.040;2022-09-03T17:00:08;15.43;;;13.60;;
28304;SDS011;15569;42.652;23.040;2022-09-03T17:05:21;27.20;;;21.02;;
28304;SDS011;15569;42.652;23.040;2022-09-03T17:10:42;38.03;;;28.25;;
28304;SDS011;15569;42.652;23.040;2022-09-03T17:18:52;13.95;;;12.27;;
28304;SDS011;15569;42.652;23.040;2022-09-03T17:32:36;18.80;;;12.95;;
28304;SDS011;15569;42.652;23.040;2022-09-03T17:46:07;11.77;;;10.30;;
28304;SDS011;15569;42.652;23.040;2022-09-03T17:48:59;12.18;;;10.95;;
28304;SDS011;15569;42.652;23.040;2022-09-03T17:54:37;11.85;;;10.65;;
28304;SDS011;15569;42.652;23.040;2022-09-03T17:57:12;11.80;;;5.57;;
28304;SDS011;15569;42.652;23.040;2022-09-03T17:59:44;8.93;;;8.02;;
28304;SDS011;15569;42.652;23.040;2022-09-03T18:04:56;11.63;;;9.07;;
28304;SDS011;15569;42.652;23.040;2022-09-03T18:10:00;12.45;;;8.00;;
28304;SDS011;15569;42.652;23.040;2022-09-03T18:15:23;9.38;;;8.00;;
28304;SDS011;15569;42.652;23.040;2022-09-03T18:18:11;8.35;;;6.60;;
28304;SDS011;15569;42.652;23.040;2022-09-03T18:20:49;7.95;;;6.45;;
28304;SDS011;15569;42.652;23.040;2022-09-03T18:23:43;9.80;;;6.38;;
28304;SDS011;15569;42.652;23.040;2022-09-03T18:26:33;9.80;;;6.00;;
28304;SDS011;15569;42.652;23.040;2022-09-03T18:29:30;7.47;;;5.53;;
28304;SDS011;15569;42.652;23.040;2022-09-03T18:32:18;9.63;;;6.05;;
28304;SDS011;15569;42.652;23.040;2022-09-03T18:35:02;9.63;;;6.30;;
28304;SDS011;15569;42.652;23.040;2022-09-03T18:37:45;8.15;;;5.50;;
28304;SDS011;15569;42.652;23.040;2022-09-03T18:40:34;6.82;;;4.68;;
28304;SDS011;15569;42.652;23.040;2022-09-03T18:43:24;6.28;;;4.85;;
28304;SDS011;15569;42.652;23.040;2022-09-03T18:46:24;8.35;;;6.05;;
28304;SDS011;15569;42.652;23.040;2022-09-03T18:49:33;10.57;;;5.28;;
28304;SDS011;15569;42.652;23.040;2022-09-03T18:52:28;8.75;;;5.22;;
28304;SDS011;15569;42.652;23.040;2022-09-03T18:55:41;10.05;;;6.40;;
28304;SDS011;15569;42.652;23.040;2022-09-03T19:01:43;19.45;;;16.65;;
28304;SDS011;15569;42.652;23.040;2022-09-03T19:07:34;17.25;;;14.07;;
28304;SDS011;15569;42.652;23.040;2022-09-03T19:16:18;12.88;;;10.57;;
28304;SDS011;15569;42.652;23.040;2022-09-03T19:22:32;12.23;;;9.10;;
28304;SDS011;15569;42.652;23.040;2022-09-03T19:25:18;11.10;;;9.02;;
28304;SDS011;15569;42.652;23.040;2022-09-03T19:31:09;12.82;;;8.02;;
28304;SDS011;15569;42.652;23.040;2022-09-03T19:55:24;19.98;;;17.60;;
28304;SDS011;15569;42.652;23.040;2022-09-03T19:58:10;19.48;;;16.52;;
28304;SDS011;15569;42.652;23.040;2022-09-03T20:00:57;17.63;;;14.95;;
28304;SDS011;15569;42.652;23.040;2022-09-03T20:03:41;20.33;;;15.85;;
28304;SDS011;15569;42.652;23.040;2022-09-03T20:06:25;12.95;;;11.68;;
28304;SDS011;15569;42.652;23.040;2022-09-03T20:09:10;18.27;;;11.85;;
28304;SDS011;15569;42.652;23.040;2022-09-03T20:11:59;10.98;;;9.32;;
28304;SDS011;15569;42.652;23.040;2022-09-03T20:14:28;11.25;;;9.20;;
28304;SDS011;15569;42.652;23.040;2022-09-03T20:28:06;17.70;;;15.70;;
28304;SDS011;15569;42.652;23.040;2022-09-03T20:37:57;11.02;;;9.80;;
28304;SDS011;15569;42.652;23.040;2022-09-03T20:45:56;14.75;;;9.82;;
28304;SDS011;15569;42.652;23.040;2022-09-03T20:48:25;9.75;;;8.50;;
28304;SDS011;15569;42.652;23.040;2022-09-03T20:53:39;12.60;;;9.15;;
28304;SDS011;15569;42.652;23.040;2022-09-03T21:01:29;20.27;;;16.80;;
28304;SDS011;15569;42.652;23.040;2022-09-03T21:06:49;15.52;;;13.35;;
28304;SDS011;15569;42.652;23.040;2022-09-03T21:23:38;11.82;;;8.00;;
28304;SDS011;15569;42.652;23.040;2022-09-03T21:26:04;10.27;;;8.05;;
28304;SDS011;15569;42.652;23.040;2022-09-03T21:28:38;8.90;;;6.80;;
28304;SDS011;15569;42.652;23.040;2022-09-03T21:34:26;9.63;;;6.57;;
28304;SDS011;15569;42.652;23.040;2022-09-03T21:36:54;14.40;;;6.93;;
28304;SDS011;15569;42.652;23.040;2022-09-03T21:39:25;13.73;;;6.43;;
28304;SDS011;15569;42.652;23.040;2022-09-03T21:41:57;8.85;;;5.90;;
28304;SDS011;15569;42.652;23.040;2022-09-03T21:47:17;10.95;;;7.80;;
28304;SDS011;15569;42.652;23.040;2022-09-03T21:52:27;18.02;;;15.80;;
28304;SDS011;15569;42.652;23.040;2022-09-03T21:55:01;19.42;;;15.50;;
28304;SDS011;15569;42.652;23.040;2022-09-03T21:57:41;15.30;;;13.60;;
28304;SDS011;15569;42.652;23.040;2022-09-03T22:00:26;15.88;;;12.15;;
28304;SDS011;15569;42.652;23.040;2022-09-03T22:02:57;16.30;;;12.60;;
28304;SDS011;15569;42.652;23.040;2022-09-03T22:05:24;13.43;;;11.02;;
28304;SDS011;15569;42.652;23.040;2022-09-03T22:15:46;17.98;;;12.77;;
28304;SDS011;15569;42.652;23.040;2022-09-03T22:20:52;18.42;;;16.52;;
28304;SDS011;15569;42.652;23.040;2022-09-03T22:23:31;18.38;;;14.05;;
28304;SDS011;15569;42.652;23.040;2022-09-03T22:26:13;15.27;;;13.63;;
28304;SDS011;15569;42.652;23.040;2022-09-03T22:29:34;18.05;;;12.63;;
28304;SDS011;15569;42.652;23.040;2022-09-03T22:32:04;20.38;;;11.85;;
28304;SDS011;15569;42.652;23.040;2022-09-03T22:34:51;11.88;;;10.57;;
28304;SDS011;15569;42.652;23.040;2022-09-03T22:48:22;11.77;;;10.60;;
28304;SDS011;15569;42.652;23.040;2022-09-03T22:51:15;17.42;;;15.63;;
28304;SDS011;15569;42.652;23.040;2022-09-03T22:56:19;16.35;;;14.63;;
28304;SDS011;15569;42.652;23.040;2022-09-03T23:01:38;16.48;;;12.40;;
28304;SDS011;15569;42.652;23.040;2022-09-03T23:04:29;12.13;;;9.77;;
28304;SDS011;15569;42.652;23.040;2022-09-03T23:07:01;12.32;;;11.02;;
28304;SDS011;15569;42.652;23.040;2022-09-03T23:10:01;12.32;;;9.57;;
28304;SDS011;15569;42.652;23.040;2022-09-03T23:12:49;10.48;;;8.68;;
28304;SDS011;15569;42.652;23.040;2022-09-03T23:15:22;10.55;;;8.35;;
28304;SDS011;15569;42.652;23.040;2022-09-03T23:20:43;8.98;;;7.70;;
28304;SDS011;15569;42.652;23.040;2022-09-03T23:25:53;11.55;;;7.50;;